sensor_id;sensor_type;location;lat;lon;timestamp;pressure;altitude;pressure_sealevel;temperature;humidity
11049;BME280;5577;42.706;23.160;2022-08-19T00:01:45;93897.72;;;22.17;100.00
11049;BME280;5577;42.706;23.160;2022-08-19T00:04:31;93871.72;;;21.78;100.00
11049;BME280;5577;42.706;23.160;2022-08-19T00:07:16;93896.53;;;22.02;100.00
11049;BME280;5577;42.706;23.160;2022-08-19T00:10:00;93865.81;;;21.67;100.00
11049;BME280;5577;42.706;23.160;2022-08-19T00:12:44;93908.44;;;21.88;100.00
11049;BME280;5577;42.706;23.160;2022-08-19T00:15:28;93915.09;;;21.84;100.00
11049;BME280;5577;42.706;23.160;2022-08-19T00:18:12;93915.91;;;21.81;100.00
11049;BME280;5577;42.706;23.160;2022-08-19T00:20:56;93917.53;;;21.78;100.00
11049;BME280;5577;42.706;23.160;2022-08-19T00:23:42;93925.19;;;21.80;100.00
11049;BME280;5577;42.706;23.160;2022-08-19T00:26:27;93924.25;;;21.70;100.00
11049;BME280;5577;42.706;23.160;2022-08-19T00:29:14;93920.03;;;21.69;100.00
11049;BME280;5577;42.706;23.160;2022-08-19T00:31:58;93924.41;;;21.63;100.00
11049;BME280;5577;42.706;23.160;2022-08-19T00:34:43;93908.72;;;21.58;100.00
11049;BME280;5577;42.706;23.160;2022-08-19T00:37:27;93913.78;;;21.56;100.00
11049;BME280;5577;42.706;23.160;2022-08-19T00:40:12;93923.63;;;21.47;100.00
11049;BME280;5577;42.706;23.160;2022-08-19T00:42:56;93918.31;;;21.43;100.00
11049;BME280;5577;42.706;23.160;2022-08-19T00:45:40;93906.72;;;21.46;100.00
11049;BME280;5577;42.706;23.160;2022-08-19T00:48:27;93902.16;;;21.43;100.00
11049;BME280;5577;42.706;23.160;2022-08-19T00:51:11;93911.91;;;21.37;100.00
11049;BME280;5577;42.706;23.160;2022-08-19T00:53:57;93912.06;;;21.30;100.00
11049;BME280;5577;42.706;23.160;2022-08-19T00:56:42;93911.31;;;21.30;100.00
11049;BME280;5577;42.706;23.160;2022-08-19T00:59:27;93904.41;;;21.29;100.00
11049;BME280;5577;42.706;23.160;2022-08-19T01:02:12;93908.38;;;21.24;100.00
11049;BME280;5577;42.706;23.160;2022-08-19T01:04:56;93911.94;;;21.18;100.00
11049;BME280;5577;42.706;23.160;2022-08-19T01:07:41;93902.97;;;21.24;100.00
11049;BME280;5577;42.706;23.160;2022-08-19T01:10:27;93909.94;;;21.22;100.00
11049;BME280;5577;42.706;23.160;2022-08-19T01:13:15;93870.72;;;20.85;100.00
11049;BME280;5577;42.706;23.160;2022-08-19T01:16:11;93912.34;;;21.00;100.00
11049;BME280;5577;42.706;23.160;2022-08-19T01:18:55;93902.03;;;20.95;100.00
11049;BME280;5577;42.706;23.160;2022-08-19T01:25:08;93900.19;;;20.92;100.00
11049;BME280;5577;42.706;23.160;2022-08-19T01:27:53;93900.59;;;20.91;100.00
11049;BME280;5577;42.706;23.160;2022-08-19T01:30:37;93894.50;;;20.87;100.00
11049;BME280;5577;42.706;23.160;2022-08-19T01:33:22;93898.38;;;20.86;100.00
11049;BME280;5577;42.706;23.160;2022-08-19T01:36:10;93891.91;;;20.83;100.00
11049;BME280;5577;42.706;23.160;2022-08-19T01:38:54;93890.94;;;20.74;100.00
11049;BME280;5577;42.706;23.160;2022-08-19T01:41:39;93880.06;;;20.61;100.00
11049;BME280;5577;42.706;23.160;2022-08-19T01:44:23;93911.28;;;20.75;100.00
11049;BME280;5577;42.706;23.160;2022-08-19T01:47:08;93906.13;;;20.64;100.00
11049;BME280;5577;42.706;23.160;2022-08-19T01:49:53;93922.28;;;20.64;100.00
11049;BME280;5577;42.706;23.160;2022-08-19T01:52:39;93917.03;;;20.57;100.00
11049;BME280;5577;42.706;23.160;2022-08-19T01:55:23;93909.44;;;20.52;100.00
11049;BME280;5577;42.706;23.160;2022-08-19T01:58:14;93890.69;;;20.29;100.00
11049;BME280;5577;42.706;23.160;2022-08-19T02:01:00;93907.78;;;20.39;100.00
11049;BME280;5577;42.706;23.160;2022-08-19T02:03:44;93914.94;;;20.45;100.00
11049;BME280;5577;42.706;23.160;2022-08-19T02:06:29;93914.13;;;20.48;100.00
11049;BME280;5577;42.706;23.160;2022-08-19T02:09:13;93901.03;;;20.50;100.00
11049;BME280;5577;42.706;23.160;2022-08-19T02:11:58;93898.75;;;20.49;100.00
11049;BME280;5577;42.706;23.160;2022-08-19T02:14:42;93901.78;;;20.51;100.00
11049;BME280;5577;42.706;23.160;2022-08-19T02:17:27;93903.44;;;20.45;100.00
11049;BME280;5577;42.706;23.160;2022-08-19T02:20:12;93907.28;;;20.44;100.00
11049;BME280;5577;42.706;23.160;2022-08-19T02:22:56;93904.25;;;20.42;100.00
11049;BME280;5577;42.706;23.160;2022-08-19T02:25:41;93904.72;;;20.37;100.00
11049;BME280;5577;42.706;23.160;2022-08-19T02:28:25;93890.16;;;20.15;100.00
11049;BME280;5577;42.706;23.160;2022-08-19T02:31:15;93907.34;;;20.21;100.00
11049;BME280;5577;42.706;23.160;2022-08-19T02:33:59;93908.84;;;20.22;100.00
11049;BME280;5577;42.706;23.160;2022-08-19T02:36:44;93897.69;;;20.23;100.00
11049;BME280;5577;42.706;23.160;2022-08-19T02:39:28;93908.44;;;20.23;100.00
11049;BME280;5577;42.706;23.160;2022-08-19T02:42:12;93900.50;;;20.16;100.00
11049;BME280;5577;42.706;23.160;2022-08-19T02:44:56;93902.84;;;20.14;100.00
11049;BME280;5577;42.706;23.160;2022-08-19T02:47:40;93897.91;;;20.09;100.00
11049;BME280;5577;42.706;23.160;2022-08-19T02:50:25;93873.72;;;19.86;100.00
11049;BME280;5577;42.706;23.160;2022-08-19T02:53:10;93881.78;;;19.86;100.00
11049;BME280;5577;42.706;23.160;2022-08-19T02:55:54;93913.78;;;20.00;100.00
11049;BME280;5577;42.706;23.160;2022-08-19T02:58:39;93912.47;;;20.12;100.00
11049;BME280;5577;42.706;23.160;2022-08-19T03:01:33;93893.78;;;19.82;100.00
11049;BME280;5577;42.706;23.160;2022-08-19T03:04:16;93919.97;;;19.97;100.00
11049;BME280;5577;42.706;23.160;2022-08-19T03:07:00;93925.78;;;19.96;100.00
11049;BME280;5577;42.706;23.160;2022-08-19T03:09:44;93909.06;;;19.84;100.00
11049;BME280;5577;42.706;23.160;2022-08-19T03:12:29;93909.53;;;19.79;100.00
11049;BME280;5577;42.706;23.160;2022-08-19T03:15:12;93913.41;;;19.78;100.00
11049;BME280;5577;42.706;23.160;2022-08-19T03:17:57;93912.28;;;19.76;100.00
11049;BME280;5577;42.706;23.160;2022-08-19T03:20:43;93914.56;;;19.77;100.00
11049;BME280;5577;42.706;23.160;2022-08-19T03:23:27;93927.69;;;19.72;100.00
11049;BME280;5577;42.706;23.160;2022-08-19T03:26:11;93928.88;;;19.71;100.00
11049;BME280;5577;42.706;23.160;2022-08-19T03:28:55;93921.00;;;19.60;100.00
11049;BME280;5577;42.706;23.160;2022-08-19T03:31:41;93916.34;;;19.61;100.00
11049;BME280;5577;42.706;23.160;2022-08-19T03:34:29;93912.59;;;19.55;100.00
11049;BME280;5577;42.706;23.160;2022-08-19T03:37:13;93923.88;;;19.46;100.00
11049;BME280;5577;42.706;23.160;2022-08-19T03:39:57;93925.44;;;19.44;100.00
11049;BME280;5577;42.706;23.160;2022-08-19T03:42:41;93927.50;;;19.33;100.00
11049;BME280;5577;42.706;23.160;2022-08-19T03:45:26;93941.34;;;19.31;100.00
11049;BME280;5577;42.706;23.160;2022-08-19T03:48:11;93931.06;;;19.23;100.00
11049;BME280;5577;42.706;23.160;2022-08-19T03:50:55;93940.38;;;19.18;100.00
11049;BME280;5577;42.706;23.160;2022-08-19T03:53:39;93941.91;;;19.16;100.00
11049;BME280;5577;42.706;23.160;2022-08-19T03:56:24;93940.78;;;19.13;100.00
11049;BME280;5577;42.706;23.160;2022-08-19T03:59:14;93937.03;;;19.07;100.00
11049;BME280;5577;42.706;23.160;2022-08-19T04:02:00;93947.38;;;19.09;100.00
11049;BME280;5577;42.706;23.160;2022-08-19T04:04:45;93950.03;;;19.09;100.00
11049;BME280;5577;42.706;23.160;2022-08-19T04:07:29;93948.19;;;19.06;100.00
11049;BME280;5577;42.706;23.160;2022-08-19T04:10:13;93940.44;;;19.11;100.00
11049;BME280;5577;42.706;23.160;2022-08-19T04:12:57;93909.44;;;18.80;100.00
11049;BME280;5577;42.706;23.160;2022-08-19T04:15:42;93947.16;;;18.96;100.00
11049;BME280;5577;42.706;23.160;2022-08-19T04:18:26;93959.25;;;19.11;100.00
11049;BME280;5577;42.706;23.160;2022-08-19T04:21:20;93961.81;;;19.18;100.00
11049;BME280;5577;42.706;23.160;2022-08-19T04:24:05;93968.97;;;19.28;100.00
11049;BME280;5577;42.706;23.160;2022-08-19T04:26:50;93958.63;;;19.30;100.00
11049;BME280;5577;42.706;23.160;2022-08-19T04:29:34;93961.66;;;19.32;100.00
11049;BME280;5577;42.706;23.160;2022-08-19T04:32:18;93961.56;;;19.39;100.00
11049;BME280;5577;42.706;23.160;2022-08-19T04:35:02;93956.84;;;19.47;100.00
11049;BME280;5577;42.706;23.160;2022-08-19T04:37:46;93961.72;;;19.55;100.00
11049;BME280;5577;42.706;23.160;2022-08-19T04:40:30;93952.38;;;19.63;100.00
11049;BME280;5577;42.706;23.160;2022-08-19T04:43:35;93954.41;;;19.83;100.00
11049;BME280;5577;42.706;23.160;2022-08-19T04:46:20;93951.88;;;19.95;100.00
11049;BME280;5577;42.706;23.160;2022-08-19T04:49:05;93955.84;;;20.10;100.00
11049;BME280;5577;42.706;23.160;2022-08-19T04:51:51;93950.34;;;20.21;100.00
11049;BME280;5577;42.706;23.160;2022-08-19T04:54:40;93961.97;;;20.37;100.00
11049;BME280;5577;42.706;23.160;2022-08-19T04:57:24;93964.53;;;20.44;100.00
11049;BME280;5577;42.706;23.160;2022-08-19T05:00:12;93966.53;;;20.60;100.00
11049;BME280;5577;42.706;23.160;2022-08-19T05:02:57;93966.59;;;20.76;100.00
11049;BME280;5577;42.706;23.160;2022-08-19T05:05:41;93962.91;;;20.89;100.00
11049;BME280;5577;42.706;23.160;2022-08-19T05:08:25;93849.53;;;20.09;100.00
11049;BME280;5577;42.706;23.160;2022-08-19T05:14:01;93973.81;;;21.02;100.00
11049;BME280;5577;42.706;23.160;2022-08-19T05:16:45;93970.84;;;21.16;100.00
11049;BME280;5577;42.706;23.160;2022-08-19T05:19:29;93972.91;;;21.28;100.00
11049;BME280;5577;42.706;23.160;2022-08-19T05:22:32;93947.16;;;21.27;100.00
11049;BME280;5577;42.706;23.160;2022-08-19T05:25:20;93968.50;;;21.53;100.00
11049;BME280;5577;42.706;23.160;2022-08-19T05:28:05;93968.84;;;21.71;100.00
11049;BME280;5577;42.706;23.160;2022-08-19T05:30:49;93970.75;;;21.74;100.00
11049;BME280;5577;42.706;23.160;2022-08-19T05:33:34;93964.63;;;21.90;100.00
11049;BME280;5577;42.706;23.160;2022-08-19T05:36:19;93965.53;;;22.15;100.00
11049;BME280;5577;42.706;23.160;2022-08-19T05:39:03;93972.59;;;22.25;100.00
11049;BME280;5577;42.706;23.160;2022-08-19T05:41:50;93963.41;;;22.39;100.00
11049;BME280;5577;42.706;23.160;2022-08-19T05:44:36;93963.81;;;22.54;100.00
11049;BME280;5577;42.706;23.160;2022-08-19T05:47:21;93964.81;;;22.60;100.00
11049;BME280;5577;42.706;23.160;2022-08-19T05:50:06;93963.16;;;22.78;100.00
11049;BME280;5577;42.706;23.160;2022-08-19T05:52:51;93969.69;;;22.93;100.00
11049;BME280;5577;42.706;23.160;2022-08-19T05:55:35;93970.38;;;23.10;100.00
11049;BME280;5577;42.706;23.160;2022-08-19T05:58:21;93967.00;;;23.22;100.00
11049;BME280;5577;42.706;23.160;2022-08-19T06:01:15;93969.31;;;23.20;100.00
11049;BME280;5577;42.706;23.160;2022-08-19T06:03:59;93972.44;;;23.18;100.00
11049;BME280;5577;42.706;23.160;2022-08-19T06:06:45;93958.91;;;23.22;100.00
11049;BME280;5577;42.706;23.160;2022-08-19T06:09:29;93974.56;;;23.39;100.00
11049;BME280;5577;42.706;23.160;2022-08-19T06:12:13;93962.28;;;23.51;100.00
11049;BME280;5577;42.706;23.160;2022-08-19T06:14:57;93941.28;;;23.30;100.00
11049;BME280;5577;42.706;23.160;2022-08-19T06:17:43;93976.00;;;23.56;100.00
11049;BME280;5577;42.706;23.160;2022-08-19T06:20:28;93960.34;;;23.64;100.00
11049;BME280;5577;42.706;23.160;2022-08-19T06:23:11;93970.38;;;23.63;100.00
11049;BME280;5577;42.706;23.160;2022-08-19T06:25:56;93964.47;;;23.68;100.00
11049;BME280;5577;42.706;23.160;2022-08-19T06:28:41;93958.50;;;23.73;100.00
11049;BME280;5577;42.706;23.160;2022-08-19T06:31:29;93965.75;;;23.76;100.00
11049;BME280;5577;42.706;23.160;2022-08-19T06:34:16;93967.91;;;23.81;100.00
11049;BME280;5577;42.706;23.160;2022-08-19T06:37:01;93966.72;;;23.82;100.00
11049;BME280;5577;42.706;23.160;2022-08-19T06:39:45;93975.06;;;24.00;100.00
11049;BME280;5577;42.706;23.160;2022-08-19T06:42:29;93970.50;;;24.10;100.00
11049;BME280;5577;42.706;23.160;2022-08-19T06:45:14;93973.97;;;24.23;100.00
11049;BME280;5577;42.706;23.160;2022-08-19T06:47:58;93968.31;;;24.30;100.00
11049;BME280;5577;42.706;23.160;2022-08-19T06:50:42;93973.94;;;24.35;100.00
11049;BME280;5577;42.706;23.160;2022-08-19T06:53:26;93976.84;;;24.41;100.00
11049;BME280;5577;42.706;23.160;2022-08-19T06:56:13;93978.75;;;24.53;100.00
11049;BME280;5577;42.706;23.160;2022-08-19T06:58:58;93983.50;;;24.61;100.00
11049;BME280;5577;42.706;23.160;2022-08-19T07:01:48;93982.06;;;24.69;100.00
11049;BME280;5577;42.706;23.160;2022-08-19T07:04:34;93982.84;;;24.57;100.00
11049;BME280;5577;42.706;23.160;2022-08-19T07:07:20;93980.72;;;24.52;100.00
11049;BME280;5577;42.706;23.160;2022-08-19T07:10:06;93982.09;;;24.57;100.00
11049;BME280;5577;42.706;23.160;2022-08-19T07:12:50;93980.03;;;24.73;100.00
11049;BME280;5577;42.706;23.160;2022-08-19T07:15:36;93972.25;;;24.97;100.00
11049;BME280;5577;42.706;23.160;2022-08-19T07:18:21;93980.16;;;25.13;100.00
11049;BME280;5577;42.706;23.160;2022-08-19T07:21:09;93980.56;;;25.46;100.00
11049;BME280;5577;42.706;23.160;2022-08-19T07:23:54;93980.09;;;25.47;100.00
11049;BME280;5577;42.706;23.160;2022-08-19T07:26:41;93989.72;;;25.39;100.00
11049;BME280;5577;42.706;23.160;2022-08-19T07:29:27;93958.38;;;25.38;100.00
11049;BME280;5577;42.706;23.160;2022-08-19T07:32:12;93986.13;;;25.82;100.00
11049;BME280;5577;42.706;23.160;2022-08-19T07:34:56;93977.81;;;25.98;100.00
11049;BME280;5577;42.706;23.160;2022-08-19T07:37:40;93979.97;;;26.12;100.00
11049;BME280;5577;42.706;23.160;2022-08-19T07:40:28;93986.16;;;26.12;100.00
11049;BME280;5577;42.706;23.160;2022-08-19T07:43:12;93991.16;;;26.23;100.00
11049;BME280;5577;42.706;23.160;2022-08-19T07:45:56;93950.13;;;26.12;98.38
11049;BME280;5577;42.706;23.160;2022-08-19T07:48:42;93981.25;;;26.56;97.22
11049;BME280;5577;42.706;23.160;2022-08-19T07:51:30;93993.53;;;26.69;94.20
11049;BME280;5577;42.706;23.160;2022-08-19T07:54:15;93989.16;;;26.90;95.52
11049;BME280;5577;42.706;23.160;2022-08-19T07:56:59;93991.88;;;26.99;90.24
11049;BME280;5577;42.706;23.160;2022-08-19T07:59:43;94001.41;;;26.94;89.01
11049;BME280;5577;42.706;23.160;2022-08-19T08:02:27;93994.16;;;27.18;90.44
11049;BME280;5577;42.706;23.160;2022-08-19T08:05:11;93998.53;;;27.34;87.62
11049;BME280;5577;42.706;23.160;2022-08-19T08:08:14;93964.84;;;27.40;85.08
11049;BME280;5577;42.706;23.160;2022-08-19T08:11:27;93994.94;;;27.79;83.74
11049;BME280;5577;42.706;23.160;2022-08-19T08:14:11;93989.50;;;27.88;81.76
11049;BME280;5577;42.706;23.160;2022-08-19T08:16:57;93978.00;;;27.93;81.47
11049;BME280;5577;42.706;23.160;2022-08-19T08:19:42;93986.97;;;28.17;78.17
11049;BME280;5577;42.706;23.160;2022-08-19T08:22:26;93982.66;;;28.34;76.11
11049;BME280;5577;42.706;23.160;2022-08-19T08:25:30;93987.84;;;28.55;71.74
11049;BME280;5577;42.706;23.160;2022-08-19T08:28:16;93987.72;;;28.73;68.82
11049;BME280;5577;42.706;23.160;2022-08-19T08:31:00;93980.69;;;29.05;64.79
11049;BME280;5577;42.706;23.160;2022-08-19T08:33:45;93973.47;;;29.31;66.29
11049;BME280;5577;42.706;23.160;2022-08-19T08:36:29;93979.81;;;29.51;60.15
11049;BME280;5577;42.706;23.160;2022-08-19T08:39:18;93970.88;;;29.80;61.54
11049;BME280;5577;42.706;23.160;2022-08-19T08:45:00;93978.53;;;30.40;56.86
11049;BME280;5577;42.706;23.160;2022-08-19T08:47:48;93971.59;;;30.44;49.87
11049;BME280;5577;42.706;23.160;2022-08-19T08:50:39;93960.06;;;30.35;47.24
11049;BME280;5577;42.706;23.160;2022-08-19T08:53:24;93970.91;;;30.64;52.18
11049;BME280;5577;42.706;23.160;2022-08-19T08:56:10;93962.09;;;30.74;49.00
11049;BME280;5577;42.706;23.160;2022-08-19T09:02:00;93963.50;;;30.70;45.82
11049;BME280;5577;42.706;23.160;2022-08-19T09:04:45;93961.22;;;30.83;47.85
11049;BME280;5577;42.706;23.160;2022-08-19T09:07:45;93954.09;;;30.71;47.92
11049;BME280;5577;42.706;23.160;2022-08-19T09:10:39;93957.91;;;30.99;46.88
11049;BME280;5577;42.706;23.160;2022-08-19T09:14:04;93958.19;;;31.46;44.78
11049;BME280;5577;42.706;23.160;2022-08-19T09:16:52;93954.09;;;31.62;40.14
11049;BME280;5577;42.706;23.160;2022-08-19T09:20:32;93955.22;;;31.75;39.82
11049;BME280;5577;42.706;23.160;2022-08-19T09:22:52;93959.88;;;31.95;41.61
11049;BME280;5577;42.706;23.160;2022-08-19T09:25:36;93951.88;;;31.60;41.46
11049;BME280;5577;42.706;23.160;2022-08-19T09:28:20;93953.22;;;32.07;39.24
11049;BME280;5577;42.706;23.160;2022-08-19T09:31:04;93948.50;;;32.38;38.16
11049;BME280;5577;42.706;23.160;2022-08-19T09:33:49;93944.16;;;32.74;37.01
11049;BME280;5577;42.706;23.160;2022-08-19T09:36:33;93945.31;;;32.51;35.78
11049;BME280;5577;42.706;23.160;2022-08-19T09:39:19;93941.78;;;32.45;35.98
11049;BME280;5577;42.706;23.160;2022-08-19T09:42:03;93942.13;;;32.64;35.99
11049;BME280;5577;42.706;23.160;2022-08-19T09:44:48;93936.00;;;32.37;35.98
11049;BME280;5577;42.706;23.160;2022-08-19T09:47:32;93940.41;;;32.24;36.24
11049;BME280;5577;42.706;23.160;2022-08-19T09:50:17;93903.19;;;32.43;36.36
11049;BME280;5577;42.706;23.160;2022-08-19T09:53:02;93932.28;;;32.40;36.02
11049;BME280;5577;42.706;23.160;2022-08-19T09:55:46;93930.34;;;32.46;35.16
11049;BME280;5577;42.706;23.160;2022-08-19T09:58:31;93923.94;;;32.61;36.26
11049;BME280;5577;42.706;23.160;2022-08-19T10:01:24;93898.41;;;32.38;34.61
11049;BME280;5577;42.706;23.160;2022-08-19T10:04:08;93920.97;;;32.64;34.67
11049;BME280;5577;42.706;23.160;2022-08-19T10:06:55;93924.94;;;32.63;34.05
11049;BME280;5577;42.706;23.160;2022-08-19T10:09:40;93923.47;;;32.68;32.63
11049;BME280;5577;42.706;23.160;2022-08-19T10:12:25;93916.66;;;33.11;32.99
11049;BME280;5577;42.706;23.160;2022-08-19T10:15:09;93913.25;;;33.65;35.63
11049;BME280;5577;42.706;23.160;2022-08-19T10:17:53;93917.00;;;33.73;31.30
11049;BME280;5577;42.706;23.160;2022-08-19T10:20:37;93912.22;;;33.30;31.85
11049;BME280;5577;42.706;23.160;2022-08-19T10:23:21;93912.66;;;33.06;32.17
11049;BME280;5577;42.706;23.160;2022-08-19T10:26:06;93906.50;;;33.55;33.92
11049;BME280;5577;42.706;23.160;2022-08-19T10:28:51;93850.59;;;33.31;32.96
11049;BME280;5577;42.706;23.160;2022-08-19T10:31:34;93901.72;;;33.28;33.22
11049;BME280;5577;42.706;23.160;2022-08-19T10:34:18;93906.22;;;33.20;33.32
11049;BME280;5577;42.706;23.160;2022-08-19T10:37:04;93902.22;;;33.16;33.72
11049;BME280;5577;42.706;23.160;2022-08-19T10:39:49;93893.00;;;33.19;33.94
11049;BME280;5577;42.706;23.160;2022-08-19T10:42:34;93887.78;;;33.48;33.25
11049;BME280;5577;42.706;23.160;2022-08-19T10:45:19;93888.53;;;34.09;33.24
11049;BME280;5577;42.706;23.160;2022-08-19T10:48:06;93884.59;;;34.78;32.71
11049;BME280;5577;42.706;23.160;2022-08-19T10:50:50;93887.03;;;34.93;32.18
11049;BME280;5577;42.706;23.160;2022-08-19T10:53:53;93853.88;;;34.69;31.71
11049;BME280;5577;42.706;23.160;2022-08-19T10:56:37;93882.75;;;34.40;32.33
11049;BME280;5577;42.706;23.160;2022-08-19T10:59:37;93889.06;;;34.81;30.99
11049;BME280;5577;42.706;23.160;2022-08-19T11:02:22;93878.41;;;35.13;31.43
11049;BME280;5577;42.706;23.160;2022-08-19T11:05:06;93887.44;;;35.14;31.36
11049;BME280;5577;42.706;23.160;2022-08-19T11:07:51;93879.47;;;35.05;31.08
11049;BME280;5577;42.706;23.160;2022-08-19T11:10:35;93882.34;;;34.82;32.40
11049;BME280;5577;42.706;23.160;2022-08-19T11:13:20;93875.97;;;35.04;30.31
11049;BME280;5577;42.706;23.160;2022-08-19T11:16:09;93873.84;;;34.75;31.05
11049;BME280;5577;42.706;23.160;2022-08-19T11:18:56;93864.69;;;35.08;31.41
11049;BME280;5577;42.706;23.160;2022-08-19T11:21:44;93842.75;;;35.37;31.47
11049;BME280;5577;42.706;23.160;2022-08-19T11:24:29;93869.25;;;34.94;31.21
11049;BME280;5577;42.706;23.160;2022-08-19T11:27:14;93844.81;;;35.26;31.87
11049;BME280;5577;42.706;23.160;2022-08-19T11:29:58;93860.47;;;35.77;31.53
11049;BME280;5577;42.706;23.160;2022-08-19T11:32:42;93857.72;;;36.01;31.22
11049;BME280;5577;42.706;23.160;2022-08-19T11:35:26;93850.88;;;36.37;32.10
11049;BME280;5577;42.706;23.160;2022-08-19T11:38:10;93847.72;;;36.70;29.99
11049;BME280;5577;42.706;23.160;2022-08-19T11:41:00;93852.81;;;36.84;29.48
11049;BME280;5577;42.706;23.160;2022-08-19T11:43:45;93840.34;;;36.78;30.33
11049;BME280;5577;42.706;23.160;2022-08-19T11:46:30;93847.22;;;35.99;30.22
11049;BME280;5577;42.706;23.160;2022-08-19T11:49:17;93837.81;;;35.60;30.82
11049;BME280;5577;42.706;23.160;2022-08-19T11:52:02;93829.31;;;35.23;29.72
11049;BME280;5577;42.706;23.160;2022-08-19T11:54:47;93828.31;;;34.85;30.58
11049;BME280;5577;42.706;23.160;2022-08-19T11:57:31;93832.16;;;34.65;30.97
11049;BME280;5577;42.706;23.160;2022-08-19T12:00:15;93827.41;;;34.60;30.43
11049;BME280;5577;42.706;23.160;2022-08-19T12:02:59;93818.09;;;34.74;29.96
11049;BME280;5577;42.706;23.160;2022-08-19T12:05:43;93817.22;;;35.37;30.56
11049;BME280;5577;42.706;23.160;2022-08-19T12:08:27;93812.56;;;36.09;29.40
11049;BME280;5577;42.706;23.160;2022-08-19T12:11:15;93806.75;;;36.37;30.18
11049;BME280;5577;42.706;23.160;2022-08-19T12:13:59;93802.56;;;36.91;29.07
11049;BME280;5577;42.706;23.160;2022-08-19T12:16:44;93805.34;;;37.23;29.22
11049;BME280;5577;42.706;23.160;2022-08-19T12:19:30;93786.84;;;37.81;28.64
11049;BME280;5577;42.706;23.160;2022-08-19T12:22:14;93795.38;;;38.09;27.45
11049;BME280;5577;42.706;23.160;2022-08-19T12:24:58;93800.59;;;38.39;27.43
11049;BME280;5577;42.706;23.160;2022-08-19T12:27:42;93792.16;;;37.92;26.30
11049;BME280;5577;42.706;23.160;2022-08-19T12:30:27;93787.69;;;37.89;26.35
11049;BME280;5577;42.706;23.160;2022-08-19T12:33:11;93787.00;;;38.15;26.76
11049;BME280;5577;42.706;23.160;2022-08-19T12:36:06;93790.78;;;37.54;27.08
11049;BME280;5577;42.706;23.160;2022-08-19T12:38:51;93790.53;;;36.89;27.52
11049;BME280;5577;42.706;23.160;2022-08-19T12:41:36;93757.00;;;36.66;27.47
11049;BME280;5577;42.706;23.160;2022-08-19T12:44:22;93779.25;;;36.68;28.18
11049;BME280;5577;42.706;23.160;2022-08-19T12:47:11;93772.56;;;36.45;28.16
11049;BME280;5577;42.706;23.160;2022-08-19T12:49:55;93797.09;;;36.01;27.81
11049;BME280;5577;42.706;23.160;2022-08-19T12:52:40;93748.78;;;36.00;29.43
11049;BME280;5577;42.706;23.160;2022-08-19T12:55:27;93755.91;;;36.69;28.62
11049;BME280;5577;42.706;23.160;2022-08-19T12:58:14;93754.00;;;36.64;28.21
11049;BME280;5577;42.706;23.160;2022-08-19T13:00:58;93747.81;;;36.58;29.12
11049;BME280;5577;42.706;23.160;2022-08-19T13:03:44;93752.41;;;35.89;28.31
11049;BME280;5577;42.706;23.160;2022-08-19T13:06:28;93753.50;;;36.23;28.37
11049;BME280;5577;42.706;23.160;2022-08-19T13:09:12;93740.50;;;36.61;28.20
11049;BME280;5577;42.706;23.160;2022-08-19T13:11:56;93741.81;;;36.17;28.58
11049;BME280;5577;42.706;23.160;2022-08-19T13:14:41;93741.63;;;35.91;28.50
11049;BME280;5577;42.706;23.160;2022-08-19T13:17:25;93735.50;;;35.74;28.97
11049;BME280;5577;42.706;23.160;2022-08-19T13:20:10;93706.19;;;34.99;29.42
11049;BME280;5577;42.706;23.160;2022-08-19T13:22:55;93737.50;;;34.90;29.64
11049;BME280;5577;42.706;23.160;2022-08-19T13:25:41;93729.88;;;35.08;29.82
11049;BME280;5577;42.706;23.160;2022-08-19T13:28:24;93723.63;;;35.37;29.98
11049;BME280;5577;42.706;23.160;2022-08-19T13:31:08;93730.47;;;35.78;29.51
11049;BME280;5577;42.706;23.160;2022-08-19T13:34:12;93726.53;;;36.16;30.40
11049;BME280;5577;42.706;23.160;2022-08-19T13:36:57;93709.78;;;36.14;30.10
11049;BME280;5577;42.706;23.160;2022-08-19T13:39:41;93725.25;;;35.99;29.68
11049;BME280;5577;42.706;23.160;2022-08-19T13:42:25;93716.41;;;35.58;30.41
11049;BME280;5577;42.706;23.160;2022-08-19T13:45:10;93693.25;;;35.18;30.49
11049;BME280;5577;42.706;23.160;2022-08-19T13:47:56;93707.25;;;34.90;30.91
11049;BME280;5577;42.706;23.160;2022-08-19T13:50:43;93712.03;;;34.84;31.21
11049;BME280;5577;42.706;23.160;2022-08-19T13:53:27;93711.31;;;34.84;30.76
11049;BME280;5577;42.706;23.160;2022-08-19T13:56:15;93711.34;;;34.73;31.76
11049;BME280;5577;42.706;23.160;2022-08-19T13:58:59;93702.63;;;34.69;30.71
11049;BME280;5577;42.706;23.160;2022-08-19T14:01:45;93707.16;;;35.02;30.22
11049;BME280;5577;42.706;23.160;2022-08-19T14:04:29;93706.94;;;35.00;30.22
11049;BME280;5577;42.706;23.160;2022-08-19T14:07:13;93696.81;;;35.13;31.32
11049;BME280;5577;42.706;23.160;2022-08-19T14:09:58;93705.97;;;34.91;30.52
11049;BME280;5577;42.706;23.160;2022-08-19T14:12:41;93706.31;;;34.82;31.41
11049;BME280;5577;42.706;23.160;2022-08-19T14:15:26;93710.19;;;34.63;30.52
11049;BME280;5577;42.706;23.160;2022-08-19T14:18:11;93706.44;;;34.60;30.53
11049;BME280;5577;42.706;23.160;2022-08-19T14:20:55;93690.50;;;34.88;31.67
11049;BME280;5577;42.706;23.160;2022-08-19T14:23:40;93698.44;;;34.97;30.48
11049;BME280;5577;42.706;23.160;2022-08-19T14:26:24;93694.06;;;34.83;31.13
11049;BME280;5577;42.706;23.160;2022-08-19T14:29:08;93697.16;;;34.63;31.07
11049;BME280;5577;42.706;23.160;2022-08-19T14:31:52;93700.59;;;34.75;30.64
11049;BME280;5577;42.706;23.160;2022-08-19T14:34:36;93676.09;;;34.77;30.92
11049;BME280;5577;42.706;23.160;2022-08-19T14:37:21;93656.44;;;34.62;32.48
11049;BME280;5577;42.706;23.160;2022-08-19T14:40:07;93684.53;;;34.79;32.42
11049;BME280;5577;42.706;23.160;2022-08-19T14:42:53;93685.06;;;34.77;31.12
11049;BME280;5577;42.706;23.160;2022-08-19T14:45:39;93686.63;;;35.03;31.94